GosportINWX Station Historical Data
 
Daily Summary for October 25, 2021 Units:  English    Metric   Both
Daily Weekly Monthly Yearly Custom
  Current: High: Low: Average:
Temperature: 50.2 °F 69.4 °F 50.2 °F 56.9 °F
Dew Point: 46.2 °F 57.3 °F 46.2 °F 52.4 °F
Humidity: 86% 93% 63% 85%
Wind Speed: 2.9mph 17.5mph 1.7mph 6.7mph
Wind Gust: 13.6mph 22.3mph - -
WindENE - - SW
Pressure: 29.57 in 29.57 in 29.28 in -
Precipitation: 0.45 in      
 
 
Tabular Data for October 25, 2021
Time Temperature Dew Point Pressure Wind Wind Speed Wind Gust Humidity Rainfall Rate (Hourly) solar
00:04 69.3 °F 56.6 °F 29.41 in SW 3.1 mph 11.8 mph 64% 0.00 in W/m2
00:09 69.3 °F 56.6 °F 29.40 in WSW 4.2 mph 11.8 mph 64% 0.00 in W/m2
00:14 69.3 °F 56.6 °F 29.40 in WSW 7.9 mph 11.8 mph 64% 0.00 in W/m2
00:19 69.3 °F 56.6 °F 29.40 in West 8.4 mph 16.2 mph 64% 0.00 in W/m2
00:24 69.3 °F 56.4 °F 29.40 in SSW 10 mph 16.2 mph 63.4% 0.00 in W/m2
00:29 69.4 °F 56.4 °F 29.39 in SSW 9 mph 16.2 mph 63.3% 0.00 in W/m2
00:34 68.8 °F 56.4 °F 29.39 in SW 7.5 mph 13.6 mph 64.6% 0.01 in W/m2
00:39 68.4 °F 56.1 °F 29.39 in SSW 9.6 mph 14.9 mph 65% 0.01 in W/m2
00:44 68.4 °F 56.1 °F 29.38 in SSE 8.6 mph 14.9 mph 65% 0.01 in W/m2
00:49 68.4 °F 55.8 °F 29.39 in West 7.8 mph 14.9 mph 64.3% 0.01 in W/m2
00:54 68.4 °F 55.7 °F 29.38 in SW 8.6 mph 14.9 mph 64% 0.01 in W/m2
00:59 68.4 °F 55.7 °F 29.38 in WSW 5.2 mph 14.9 mph 64% 0.01 in W/m2
01:04 68.4 °F 55.7 °F 29.38 in South 6.1 mph 14.9 mph 64% 0.01 in W/m2
01:09 68.4 °F 55.7 °F 29.38 in SW 6.5 mph 13.6 mph 64% 0.01 in W/m2
01:14 68.4 °F 55.6 °F 29.38 in SSW 7.9 mph 13.6 mph 63.8% 0.01 in W/m2
01:19 68.4 °F 55.4 °F 29.38 in WSW 5.3 mph 13.6 mph 63.2% 0.01 in W/m2
01:24 68.4 °F 55.3 °F 29.38 in SW 6.7 mph 11.8 mph 63% 0.01 in W/m2
01:29 68.2 °F 55.6 °F 29.37 in SSW 8 mph 14.9 mph 64.2% 0.02 in W/m2
01:34 67.1 °F 55.6 °F 29.36 in SSW 6.4 mph 14.9 mph 66.6% 0.02 in W/m2
01:39 66.1 °F 55.6 °F 29.37 in South 5.2 mph 14.9 mph 68.8% 0.01 in W/m2
01:44 65.4 °F 55.7 °F 29.37 in SW 5.9 mph 10.5 mph 70.7% 0.01 in W/m2
01:49 65.3 °F 55.7 °F 29.37 in South 2.6 mph 10.5 mph 71% 0.01 in W/m2
01:54 65.2 °F 55.6 °F 29.39 in South 2.7 mph 8.8 mph 71% 0.01 in W/m2
01:59 65.3 °F 55.7 °F 29.39 in West 5.6 mph 7.4 mph 71% 0.01 in W/m2
02:04 65.3 °F 55.7 °F 29.40 in South 6.1 mph 7.4 mph 71% 0.01 in W/m2
02:09 65.3 °F 55.7 °F 29.42 in South 6.1 mph 7.4 mph 71% 0.01 in W/m2
02:14 64.6 °F 55.7 °F 29.43 in West 6 mph 7.4 mph 72.8% 0.02 in W/m2
02:19 63.9 °F 55.6 °F 29.43 in West 5.1 mph 7.4 mph 74.4% 0.06 in W/m2
02:24 63.2 °F 55.6 °F 29.42 in West 6.5 mph 10.5 mph 76.1% 0.07 in W/m2
02:29 62.8 °F 55.7 °F 29.42 in West 4.1 mph 10.5 mph 77.7% 0.07 in W/m2
02:34 62.4 °F 56.2 °F 29.43 in SW 4.9 mph 10.5 mph 79.9% 0.07 in W/m2
02:39 62.2 °F 56.5 °F 29.43 in SSW 4.1 mph 7.4 mph 81.6% 0.07 in W/m2
02:44 62 °F 56.4 °F 29.43 in NNW 2.1 mph 7.4 mph 82% 0.07 in W/m2
02:49 61.8 °F 56.2 °F 29.45 in WNW 5.3 mph 8.8 mph 82% 0.08 in W/m2
02:54 61.7 °F 56.4 °F 29.45 in SW 8.2 mph 13.6 mph 82.9% 0.10 in W/m2
02:59 61.6 °F 56.4 °F 29.45 in WNW 5 mph 13.6 mph 83.1% 0.11 in W/m2
03:04 61.5 °F 56.6 °F 29.44 in WSW 6.2 mph 13.6 mph 84% 0.11 in W/m2
03:09 61.5 °F 56.8 °F 29.44 in WSW 7.3 mph 11.8 mph 84.5% 0.13 in W/m2
03:14 61.5 °F 57 °F 29.44 in SW 5 mph 11.8 mph 85% 0.14 in W/m2
03:19 61.5 °F 57 °F 29.44 in SW 7.7 mph 11.8 mph 85% 0.13 in W/m2
03:24 61.5 °F 57.3 °F 29.44 in WSW 3.8 mph 11.8 mph 86% 0.13 in W/m2
03:29 61.3 °F 57.1 °F 29.42 in SSW 4.3 mph 11.8 mph 86% 0.14 in W/m2
03:34 61.2 °F 57 °F 29.41 in SSW 4.7 mph 7.4 mph 86% 0.14 in W/m2
03:39 61.2 °F 56.9 °F 29.40 in SSW 3.9 mph 8.8 mph 86% 0.17 in W/m2
03:44 61 °F 57 °F 29.40 in South 5.6 mph 8.8 mph 86.8% 0.18 in W/m2
03:49 61 °F 57.1 °F 29.39 in South 2.9 mph 8.8 mph 87% 0.18 in W/m2
03:54 60.8 °F 56.9 °F 29.36 in ESE 5.7 mph 8.8 mph 87% 0.18 in W/m2
03:59 60.6 °F 57 °F 29.33 in ENE 5.2 mph 7.4 mph 87.9% 0.17 in W/m2
04:04 60.4 °F 56.9 °F 29.32 in NE 7.4 mph 7.4 mph 88% 0.16 in W/m2
04:09 60.3 °F 56.7 °F 29.29 in NE 7.8 mph 8.8 mph 88% 0.16 in W/m2
04:14 60.1 °F 56.5 °F 29.28 in NE 4.1 mph 8.8 mph 88% 0.13 in W/m2
04:19 59.9 °F 56.3 °F 29.32 in ESE 4.7 mph 8.8 mph 88% 0.11 in W/m2
04:24 59.9 °F 56.3 °F 29.34 in SSE 4.7 mph 7.4 mph 88% 0.10 in W/m2
04:29 60 °F 56.4 °F 29.36 in South 7.4 mph 10.5 mph 88% 0.08 in W/m2
04:34 60.1 °F 56.7 °F 29.35 in South 8.2 mph 10.5 mph 88.5% 0.08 in W/m2
04:39 60.1 °F 56.8 °F 29.37 in South 7.1 mph 13.6 mph 89% 0.07 in W/m2
04:44 60.1 °F 56.8 °F 29.39 in South 9.2 mph 13.6 mph 89% 0.05 in W/m2
04:49 60.3 °F 57 °F 29.38 in SSE 5.9 mph 13.6 mph 89% 0.02 in W/m2
04:54 60.2 °F 56.9 °F 29.35 in East 8.4 mph 13.6 mph 89% 0.01 in W/m2
04:59 60.1 °F 56.8 °F 29.35 in ESE 1.7 mph 13.6 mph 89% 0.01 in W/m2
05:04 60.1 °F 56.8 °F 29.34 in South 5.9 mph 13.6 mph 89% 0.01 in W/m2
05:09 60.1 °F 56.8 °F 29.34 in SSE 6.1 mph 10.5 mph 89% 0.01 in W/m2
05:14 60.1 °F 56.8 °F 29.35 in South 5.4 mph 10.5 mph 89% 0.01 in W/m2
05:19 60.1 °F 56.8 °F 29.36 in South 3.9 mph 10.5 mph 89% 0.01 in W/m2
05:24 60.2 °F 56.9 °F 29.36 in South 6.7 mph 10.5 mph 89.1% 0.01 in W/m2
05:29 60.3 °F 57.3 °F 29.37 in SSE 6.7 mph 10.5 mph 90% 0.01 in W/m2
05:34 60.3 °F 57.3 °F 29.36 in SE 5.9 mph 10.5 mph 90% 0.00 in W/m2
05:39 60.3 °F 57.3 °F 29.37 in South 6.5 mph 10.5 mph 90% 0.00 in W/m2
05:44 60.3 °F 57.3 °F 29.37 in South 3.2 mph 8.8 mph 90% 0.00 in W/m2
05:49 60.3 °F 57.2 °F 29.36 in SSE 4.3 mph 10.5 mph 89.8% 0.00 in W/m2
05:54 60.2 °F 56.9 °F 29.36 in South 7.5 mph 14.9 mph 89% 0.00 in W/m2
05:59 60.1 °F 56.8 °F 29.36 in South 7.1 mph 14.9 mph 89% 0.00 in W/m2
06:04 60.1 °F 56.8 °F 29.35 in South 8.8 mph 14.9 mph 89% 0.00 in W/m2
06:09 60.1 °F 56.8 °F 29.36 in South 6.7 mph 13.6 mph 89% 0.00 in W/m2
06:14 60.1 °F 56.8 °F 29.36 in South 5.2 mph 8.8 mph 89% 0.00 in W/m2
06:19 60.1 °F 56.8 °F 29.36 in South 5.8 mph 8.8 mph 89% 0.00 in W/m2
06:24 60.1 °F 56.8 °F 29.37 in SSW 2.7 mph 8.8 mph 89% 0.00 in W/m2
06:29 60.1 °F 56.8 °F 29.36 in SSW 5.8 mph 10.5 mph 89% 0.00 in W/m2
06:34 60.1 °F 56.8 °F 29.37 in SSE 4.2 mph 10.5 mph 89% 0.00 in W/m2
06:39 60.1 °F 56.8 °F 29.36 in South 4.8 mph 10.5 mph 89% 0.00 in W/m2
06:44 60.1 °F 56.8 °F 29.36 in SSW 4.6 mph 8.8 mph 89% 0.00 in W/m2
06:49 60.1 °F 56.8 °F 29.37 in South 8.4 mph 10.5 mph 89% 0.00 in W/m2
06:54 60.1 °F 56.8 °F 29.36 in SW 9.3 mph 11.8 mph 89% 0.00 in W/m2
06:59 60.2 °F 56.9 °F 29.36 in SSW 7.4 mph 14.9 mph 89% 0.00 in W/m2
07:04 60.3 °F 57 °F 29.36 in SW 5.8 mph 14.9 mph 89% 0.00 in W/m2
07:09 60.3 °F 57 °F 29.36 in SW 6 mph 14.9 mph 89% 0.00 in W/m2
07:14 60.3 °F 57 °F 29.36 in SW 5.8 mph 10.5 mph 89% 0.00 in W/m2
07:19 60.3 °F 57 °F 29.36 in SSW 6.6 mph 11.8 mph 89% 0.00 in W/m2
07:24 60.3 °F 57 °F 29.35 in SSW 5.1 mph 11.8 mph 89% 0.00 in W/m2
07:29 60.4 °F 57.1 °F 29.35 in SSW 7 mph 11.8 mph 89% 0.00 in W/m2
07:34 60.4 °F 57.2 °F 29.35 in South 6.2 mph 11.8 mph 89% 0.00 in W/m2
07:39 60.4 °F 57.2 °F 29.34 in SSW 6.6 mph 11.8 mph 89% 0.00 in W/m2
07:44 60.4 °F 57.2 °F 29.35 in SW 7 mph 11.8 mph 89% 0.01 in W/m2
07:49 60.4 °F 57.2 °F 29.35 in SW 5.5 mph 10.5 mph 89% 0.01 in W/m2
07:54 60.4 °F 57.2 °F 29.35 in South 5.9 mph 10.5 mph 89% 0.01 in W/m2
07:59 60.4 °F 57.2 °F 29.35 in West 5.6 mph 10.5 mph 89% 0.01 in W/m2
08:04 60.4 °F 57.2 °F 29.35 in West 10.5 mph 10.5 mph 89% 0.01 in W/m2
08:09 60.3 °F 57.1 °F 29.34 in WSW 8.5 mph 10.5 mph 89% 0.02 in W/m2
08:14 60.3 °F 57 °F 29.34 in WSW 5.5 mph 10.5 mph 89% 0.02 in W/m2
08:19 60.3 °F 57 °F 29.34 in North 3.9 mph 10.5 mph 89% 0.02 in W/m2
08:24 60.3 °F 57 °F 29.34 in SW 7 mph 10.5 mph 89% 0.02 in W/m2
08:29 60.3 °F 57 °F 29.35 in WSW 5.3 mph 10.5 mph 89% 0.06 in W/m2
08:34 59.9 °F 56.6 °F 29.35 in West 14.1 mph 21 mph 88.9% 0.10 in W/m2
08:39 58.6 °F 55.1 °F 29.35 in West 12.5 mph 21 mph 88.2% 0.13 in W/m2
08:44 57.9 °F 54.4 °F 29.35 in WSW 9.2 mph 21 mph 88% 0.11 in W/m2
08:49 57.6 °F 54 °F 29.35 in WSW 11.2 mph 16.2 mph 87.7% 0.11 in W/m2
08:54 57.3 °F 53.4 °F 29.36 in West 8.5 mph 16.2 mph 87% 0.11 in W/m2
08:59 56.9 °F 53.4 °F 29.37 in WSW 9.5 mph 16.2 mph 87.9% 0.11 in W/m2
09:04 56.7 °F 53.2 °F 29.37 in West 10.1 mph 16.2 mph 88% 0.11 in W/m2
09:09 56.5 °F 53 °F 29.37 in West 10.5 mph 19.3 mph 88% 0.11 in W/m2
09:14 56.3 °F 52.8 °F 29.37 in West 8.7 mph 19.3 mph 88% 0.10 in W/m2
09:19 56.2 °F 52.7 °F 29.37 in West 10.2 mph 19.3 mph 88% 0.10 in W/m2
09:24 56.1 °F 52.6 °F 29.37 in West 9.4 mph 16.2 mph 88% 0.10 in W/m2
09:29 56.3 °F 52.8 °F 29.37 in West 9.3 mph 16.2 mph 88% 0.10 in W/m2
09:34 56.3 °F 52.6 °F 29.36 in West 7.2 mph 16.2 mph 87.4% 0.06 in W/m2
09:37 56.3 °F 52.5 °F 29.37 in WSW 8.9 mph 11.8 mph 87% 0.01 in W/m2
09:49 56.2 °F 52.4 °F 29.37 in West 17.5 mph 19.3 mph 87% 0.00 in W/m2
09:54 55.3 °F 51 °F 29.38 in West 12.1 mph 19.3 mph 85.6% 0.00 in W/m2
09:59 54.4 °F 49.8 °F 29.38 in West 12.1 mph 19.3 mph 84.4% 0.00 in W/m2
10:04 54 °F 49.2 °F 29.38 in West 8.8 mph 18 mph 84% 0.00 in W/m2
10:09 53.6 °F 49 °F 29.39 in West 8.3 mph 14.9 mph 84.5% 0.00 in W/m2
10:14 52.9 °F 48.7 °F 29.39 in West 9.8 mph 11.8 mph 85.7% 0.00 in W/m2
10:19 52.6 °F 48.5 °F 29.39 in West 8.7 mph 11.8 mph 86% 0.00 in W/m2
10:24 52.4 °F 48.4 °F 29.39 in West 5.8 mph 11.8 mph 86% 0.00 in W/m2
10:29 52.3 °F 48.3 °F 29.39 in WSW 6.4 mph 11.8 mph 86% 0.00 in W/m2
10:34 52.2 °F 48.1 °F 29.39 in West 6.9 mph 10.5 mph 86% 0.00 in W/m2
10:39 52.2 °F 48.3 °F 29.38 in West 7.4 mph 10.5 mph 86.8% 0.00 in W/m2
10:44 52 °F 48.2 °F 29.39 in West 5.4 mph 10.5 mph 87% 0.00 in W/m2
10:49 52 °F 48.2 °F 29.39 in West 8.1 mph 10.5 mph 87% 0.00 in W/m2
10:54 52 °F 48.2 °F 29.39 in WSW 4.7 mph 10.5 mph 87% 0.00 in W/m2
10:59 52 °F 48.2 °F 29.39 in WSW 4 mph 10.5 mph 87% 0.00 in W/m2
11:04 52 °F 48.4 °F 29.39 in West 8 mph 11.8 mph 87.8% 0.00 in W/m2
11:09 52 °F 48.5 °F 29.39 in WSW 6.9 mph 11.8 mph 88% 0.00 in W/m2
11:14 52 °F 48.4 °F 29.39 in West 6.8 mph 11.8 mph 87.8% 0.00 in W/m2
11:19 52 °F 48.2 °F 29.39 in West 6.6 mph 10.5 mph 87% 0.00 in W/m2
11:24 52 °F 48.2 °F 29.39 in West 10.7 mph 16.2 mph 87% 0.00 in W/m2
11:29 52 °F 48 °F 29.39 in WSW 8.9 mph 16.2 mph 86.5% 0.00 in W/m2
11:34 52 °F 47.9 °F 29.39 in West 11.5 mph 21 mph 85.9% 0.00 in W/m2
11:39 52 °F 47.6 °F 29.39 in West 7.6 mph 21 mph 85% 0.00 in W/m2
11:44 52 °F 47.4 °F 29.40 in West 11.4 mph 21 mph 84.2% 0.00 in W/m2
11:49 52 °F 47.1 °F 29.39 in WSW 8.2 mph 13.6 mph 83.3% 0.00 in W/m2
11:54 52.2 °F 47.2 °F 29.39 in West 5.9 mph 13.6 mph 83% 0.00 in W/m2
11:59 52.2 °F 47.2 °F 29.39 in West 6.8 mph 13.6 mph 83% 0.00 in W/m2
12:04 52.3 °F 47.3 °F 29.39 in West 6.1 mph 7.4 mph 83% 0.00 in W/m2
12:09 52.3 °F 47.1 °F 29.39 in West 7.8 mph 10.5 mph 82.5% 0.00 in W/m2
12:14 52.3 °F 47 °F 29.39 in West 7.6 mph 10.5 mph 82% 0.00 in W/m2
12:19 52.5 °F 47.2 °F 29.39 in West 6.4 mph 10.5 mph 82% 0.00 in W/m2
12:24 52.5 °F 47.2 °F 29.39 in West 7.6 mph 11.8 mph 82% 0.00 in W/m2
12:29 52.6 °F 47.3 °F 29.39 in West 5.5 mph 11.8 mph 82% 0.00 in W/m2
12:34 52.7 °F 47.4 °F 29.39 in West 8.3 mph 11.8 mph 82% 0.00 in W/m2
12:39 52.7 °F 47.4 °F 29.40 in West 8.4 mph 14.9 mph 82% 0.00 in W/m2
12:44 52.7 °F 47.4 °F 29.40 in West 5.5 mph 14.9 mph 82% 0.00 in W/m2
12:49 52.7 °F 47.4 °F 29.40 in West 7.5 mph 14.9 mph 82% 0.00 in W/m2
12:54 52.6 °F 47.3 °F 29.40 in West 7.7 mph 11.8 mph 82% 0.00 in W/m2
12:59 52.5 °F 47.2 °F 29.40 in WNW 5.9 mph 11.8 mph 82% 0.00 in W/m2
13:04 52.6 °F 47.3 °F 29.40 in West 8.2 mph 16.2 mph 82% 0.00 in W/m2
13:09 52.4 °F 47.2 °F 29.40 in SW 9.4 mph 16.2 mph 82.3% 0.00 in W/m2
13:14 52.2 °F 47.2 °F 29.40 in WNW 6.2 mph 16.2 mph 83% 0.00 in W/m2
13:19 52.1 °F 47.3 °F 29.40 in West 7.3 mph 16.2 mph 83.6% 0.00 in W/m2
13:24 52 °F 47.3 °F 29.40 in WNW 7.6 mph 10.5 mph 84% 0.00 in W/m2
13:29 51.9 °F 47.5 °F 29.40 in West 7.8 mph 13.6 mph 85% 0.00 in W/m2
13:34 51.8 °F 47.5 °F 29.40 in West 9.2 mph 14.9 mph 85.2% 0.00 in W/m2
13:39 51.8 °F 47.7 °F 29.40 in West 7 mph 14.9 mph 86% 0.00 in W/m2
13:44 51.6 °F 48 °F 29.40 in West 7.5 mph 14.9 mph 87.1% 0.00 in W/m2
13:49 51.8 °F 48.1 °F 29.40 in West 7.7 mph 11.8 mph 87% 0.00 in W/m2
13:54 51.8 °F 48.2 °F 29.40 in West 5.7 mph 11.8 mph 87.4% 0.00 in W/m2
13:59 51.8 °F 48.4 °F 29.40 in West 6.4 mph 11.8 mph 88% 0.00 in W/m2
14:04 51.8 °F 48.4 °F 29.40 in West 4.4 mph 8.8 mph 88% 0.00 in W/m2
14:09 51.8 °F 48.5 °F 29.40 in WSW 4.8 mph 8.8 mph 88.2% 0.00 in W/m2
14:14 51.9 °F 48.8 °F 29.39 in WSW 6.8 mph 13.6 mph 89% 0.00 in W/m2
14:19 52 °F 48.8 °F 29.40 in West 7.5 mph 13.6 mph 89% 0.00 in W/m2
14:24 51.9 °F 48.7 °F 29.40 in West 7.3 mph 13.6 mph 89% 0.00 in W/m2
14:29 51.8 °F 48.9 °F 29.39 in West 6 mph 11.8 mph 89.7% 0.00 in W/m2
14:34 51.8 °F 49 °F 29.39 in WSW 6.3 mph 10.5 mph 90% 0.00 in W/m2
14:39 51.9 °F 49 °F 29.39 in West 5 mph 8.8 mph 90% 0.00 in W/m2
14:44 52 °F 49.1 °F 29.39 in West 6.4 mph 8.8 mph 90% 0.00 in W/m2
14:49 52 °F 49.3 °F 29.40 in West 6.1 mph 8.8 mph 90.8% 0.00 in W/m2
14:54 52 °F 49.4 °F 29.40 in WSW 6.4 mph 8.8 mph 91% 0.00 in W/m2
14:59 52.1 °F 49.5 °F 29.40 in West 6.1 mph 8.8 mph 91% 0.00 in W/m2
15:04 52.1 °F 49.5 °F 29.40 in West 6.3 mph 7.4 mph 91% 0.00 in W/m2
15:09 52.2 °F 49.7 °F 29.40 in West 5 mph 7.4 mph 91.5% 0.00 in W/m2
15:14 52.3 °F 50.1 °F 29.40 in West 7 mph 8.8 mph 92% 0.00 in W/m2
15:19 52.4 °F 50.2 °F 29.40 in West 6 mph 8.8 mph 92% 0.00 in W/m2
15:24 52.3 °F 50.1 °F 29.41 in West 6.6 mph 8.8 mph 92% 0.00 in W/m2
15:29 52.5 °F 50.3 °F 29.41 in West 5 mph 7.4 mph 92% 0.00 in W/m2
15:34 52.5 °F 50.3 °F 29.41 in West 6.2 mph 8.8 mph 92% 0.00 in W/m2
15:39 52.7 °F 50.4 °F 29.41 in West 6.4 mph 8.8 mph 92% 0.00 in W/m2
15:44 52.9 °F 50.7 °F 29.41 in West 5.1 mph 8.8 mph 92.3% 0.00 in W/m2
15:49 53.1 °F 51.1 °F 29.41 in West 5.5 mph 8.8 mph 93% 0.00 in W/m2
15:54 53.1 °F 51.1 °F 29.42 in West 4.2 mph 7.4 mph 93% 0.00 in W/m2
15:59 53.1 °F 51.1 °F 29.42 in West 4.8 mph 7.4 mph 93% 0.00 in W/m2
16:04 53.1 °F 51.1 °F 29.42 in West 3.1 mph 6.1 mph 93% 0.00 in W/m2
16:09 53.1 °F 51.2 °F 29.43 in West 4.2 mph 6.1 mph 93% 0.00 in W/m2
16:14 53.2 °F 51.3 °F 29.43 in West 5 mph 7.4 mph 93% 0.00 in W/m2
16:19 53.2 °F 51.3 °F 29.43 in WNW 4.4 mph 7.4 mph 93% 0.00 in W/m2
16:24 53.2 °F 51.3 °F 29.43 in West 5.1 mph 7.4 mph 93% 0.00 in W/m2
16:29 53.2 °F 51.3 °F 29.43 in WNW 4.3 mph 7.4 mph 93% 0.00 in W/m2
16:34 53.4 °F 51.4 °F 29.44 in WNW 8.1 mph 13.6 mph 93% 0.00 in W/m2
16:39 53.2 °F 51.3 °F 29.44 in WNW 10.9 mph 13.6 mph 93% 0.00 in W/m2
16:44 53.1 °F 51.1 °F 29.44 in NW 9.1 mph 13.6 mph 93% 0.00 in W/m2
16:49 52.9 °F 50.9 °F 29.44 in NW 8.4 mph 13.6 mph 93% 0.00 in W/m2
16:54 52.7 °F 50.7 °F 29.45 in NW 7 mph 11.8 mph 93% 0.00 in W/m2
16:59 52.6 °F 50.6 °F 29.46 in NW 7.2 mph 11.8 mph 93% 0.00 in W/m2
17:04 52.3 °F 50.4 °F 29.46 in NW 7.9 mph 11.8 mph 93% 0.00 in W/m2
17:09 52.2 °F 49.9 °F 29.46 in NW 6.7 mph 11.8 mph 92% 0.00 in W/m2
17:14 52.1 °F 49.8 °F 29.46 in NW 8 mph 11.8 mph 92% 0.00 in W/m2
17:19 51.8 °F 49.5 °F 29.47 in NNW 7.4 mph 10.5 mph 92% 0.00 in W/m2
17:24 51.7 °F 49.6 °F 29.48 in NW 7.4 mph 10.5 mph 92.6% 0.00 in W/m2
17:29 51.6 °F 49.7 °F 29.49 in West 6.7 mph 13.6 mph 93% 0.00 in W/m2
17:34 51.4 °F 49.3 °F 29.49 in NW 8 mph 13.6 mph 92.3% 0.00 in W/m2
17:39 51.4 °F 49.2 °F 29.49 in NW 7.6 mph 22.3 mph 92% 0.01 in W/m2
17:44 51.4 °F 49 °F 29.49 in East 8 mph 22.3 mph 91.4% 0.01 in W/m2
17:49 51.3 °F 48.7 °F 29.50 in NW 6.6 mph 22.3 mph 91% 0.01 in W/m2
17:54 51.2 °F 48.6 °F 29.50 in NNW 7.5 mph 16.2 mph 90.9% 0.01 in W/m2
17:59 51 °F 48.1 °F 29.50 in East 3.4 mph 14.9 mph 90% 0.01 in W/m2
18:04 50.9 °F 48.1 °F 29.51 in South 6.1 mph 14.9 mph 90% 0.01 in W/m2
18:09 50.9 °F 48.1 °F 29.51 in SW 6.4 mph 8.8 mph 90% 0.01 in W/m2
18:14 50.9 °F 48.1 °F 29.51 in NW 2.7 mph 8.8 mph 90% 0.01 in W/m2
18:19 50.7 °F 47.9 °F 29.52 in NNE 5.8 mph 8.8 mph 90% 0.01 in W/m2
18:24 50.7 °F 47.9 °F 29.52 in WNW 4.3 mph 8.8 mph 90% 0.01 in W/m2
18:29 50.5 °F 47.7 °F 29.52 in NNE 6.5 mph 13.6 mph 90% 0.01 in W/m2
18:34 50.4 °F 47.4 °F 29.53 in NE 5.7 mph 13.6 mph 89.3% 0.01 in W/m2
18:39 50.4 °F 47.2 °F 29.53 in NE 7.2 mph 14.9 mph 89% 0.01 in W/m2
18:44 50.4 °F 47.2 °F 29.53 in NE 5.5 mph 14.9 mph 89% 0.00 in W/m2
18:49 50.3 °F 47.2 °F 29.55 in WNW 3 mph 14.9 mph 89% 0.00 in W/m2
18:54 50.3 °F 47.1 °F 29.54 in NNE 8.7 mph 18 mph 89% 0.00 in W/m2
18:59 50.2 °F 47.1 °F 29.55 in NNE 12.7 mph 21 mph 89% 0.00 in W/m2
19:04 50.2 °F 46.9 °F 29.55 in NNE 9.5 mph 21 mph 88.2% 0.00 in W/m2
19:09 50.2 °F 46.8 °F 29.55 in NE 7.5 mph 21 mph 87.9% 0.00 in W/m2
19:14 50.2 °F 46.5 °F 29.55 in NE 5.3 mph 19.3 mph 87% 0.00 in W/m2
19:19 50.2 °F 46.5 °F 29.55 in ENE 2.8 mph 13.6 mph 87% 0.00 in W/m2
19:24 50.2 °F 46.4 °F 29.56 in NNW 6.9 mph 13.6 mph 86.7% 0.00 in W/m2
19:29 50.2 °F 46.2 °F 29.57 in ENE 2.9 mph 13.6 mph 86% 0.00 in W/m2
Juneau County Weather
Compliments of Weather Underground - 4 mb